Shellest — UBAO8 — position and weather

sailwx.info

Track history (hours):
 
Tides and Currents Weather Stations Pressure Air Temp Water Temp Dewpoint Dewpoint Depression Visibility Wind Speed Wind Dir Waves Ship Positions

Shellest

Last reported at 2017-Nov-04 00:14 UTC. Time now 2017-Nov-21 21:07 UTC.
Position N 44°35' E 038°02'.
Warning: this ship's position is 17 days out of date.

Length 46 m; draft 2.6 m.

Type: Pleasure craft. MMSI: 273385420.

Date/timePositionNaut miles runAvg speedWind from/ knotsBaromVisibWave heightAir tempDewpointWater temp
2017-Nov-04 00:14N 44°35' E 038°02'0 0.0
2017-Nov-04 00:00N 44°35' E 038°02'0 0.6
2017-Nov-03 23:30N 44°35' E 038°02'4 8.9
2017-Nov-03 23:00N 44°30' E 038°04'2010.4
2017-Nov-03 21:07N 44°18' E 038°25'1710.3
2017-Nov-03 19:30N 44°09' E 038°45'510.5
2017-Nov-03 19:00N 44°06' E 038°50'510.9
2017-Nov-03 18:31N 44°02' E 038°56'510.9
2017-Nov-03 18:00N 43°58' E 039°01'510.6
2017-Nov-03 17:30N 43°54' E 039°06'510.7
2017-Nov-03 17:00N 43°51' E 039°12'  
Track history (hours):
 
Tides and Currents Weather Stations Pressure Air Temp Water Temp Dewpoint Dewpoint Depression Visibility Wind Speed Wind Dir Waves Ship Positions

Shellest

Last reported at 2017-Nov-04 00:14 UTC. Time now 2017-Nov-21 21:07 UTC.
Position N 44°35' E 038°02'.
Warning: this ship's position is 17 days out of date.

Length 46 m; draft 2.6 m.

Type: Pleasure craft. MMSI: 273385420.

Date/timePositionNaut miles runAvg speedWind from/ knotsBaromVisibWave heightAir tempDewpointWater temp
2017-Nov-04 00:14N 44°35' E 038°02'0 0.0
2017-Nov-04 00:00N 44°35' E 038°02'0 0.6
2017-Nov-03 23:30N 44°35' E 038°02'4 8.9
2017-Nov-03 23:00N 44°30' E 038°04'2010.4
2017-Nov-03 21:07N 44°18' E 038°25'1710.3
2017-Nov-03 19:30N 44°09' E 038°45'510.5
2017-Nov-03 19:00N 44°06' E 038°50'510.9
2017-Nov-03 18:31N 44°02' E 038°56'510.9
2017-Nov-03 18:00N 43°58' E 039°01'510.6
2017-Nov-03 17:30N 43°54' E 039°06'510.7
2017-Nov-03 17:00N 43°51' E 039°12'  

Dump ship's entire track history